createdAt,value
2016-06-09T00:00:18.845Z,95.65
2016-06-09T00:01:18.896Z,95.61
2016-06-09T00:02:18.914Z,95.46
2016-06-09T00:03:18.948Z,94.65
2016-06-09T00:04:18.983Z,94.36
2016-06-09T00:05:19.017Z,94.46
2016-06-09T00:06:19.051Z,94.65
2016-06-09T00:07:19.085Z,94.55
2016-06-09T00:08:19.121Z,94.17
2016-06-09T00:09:19.154Z,93.6
2016-06-09T00:10:19.205Z,93.79
2016-06-09T00:11:19.222Z,93.69
2016-06-09T00:12:19.257Z,93.6
2016-06-09T00:13:19.291Z,93.98
2016-06-09T00:14:19.341Z,94.36
2016-06-09T00:15:19.375Z,94.55
2016-06-09T00:16:19.409Z,94.17
2016-06-09T00:17:19.445Z,94.07
2016-06-09T00:18:19.478Z,93.31
2016-06-09T00:19:19.826Z,93.98
2016-06-09T00:20:19.547Z,93.4
2016-06-09T00:21:19.597Z,93.12
2016-06-09T00:22:19.616Z,92.25
2016-06-09T00:23:19.667Z,92.16
2016-06-09T00:24:19.684Z,92.35
2016-06-09T00:25:19.734Z,91.68
2016-06-09T00:26:19.769Z,92.4
2016-06-09T00:27:19.804Z,92.11
2016-06-09T00:28:19.838Z,92.02
2016-06-09T00:29:19.871Z,92.5
2016-06-09T00:30:19.906Z,92.3
2016-06-09T00:31:19.941Z,93.07
2016-06-09T00:32:19.975Z,93.16
2016-06-09T00:33:20.025Z,92.5
2016-06-09T00:34:20.043Z,92.4
2016-06-09T00:35:20.094Z,92.88
2016-06-09T00:36:20.128Z,93.26
2016-06-09T00:37:20.162Z,92.97
2016-06-09T00:38:20.197Z,92.5
2016-06-09T00:39:20.246Z,92.3
2016-06-09T00:40:20.265Z,92.02
2016-06-09T00:41:20.300Z,92.59
2016-06-09T00:42:20.334Z,91.74
2016-06-09T00:43:20.367Z,91.35
2016-06-09T00:44:20.418Z,91.83
2016-06-09T00:45:20.436Z,91.83
2016-06-09T00:46:20.471Z,91.83
2016-06-09T00:47:20.521Z,91.93
2016-06-09T00:48:20.555Z,91.54
2016-06-09T00:49:20.589Z,91.16
2016-06-09T00:50:20.624Z,92.02
2016-06-09T00:51:20.659Z,91.83
2016-06-09T00:52:20.692Z,92.02
2016-06-09T00:53:20.743Z,91.93
2016-06-09T00:54:20.762Z,91.64
2016-06-09T00:55:20.795Z,91.54
2016-06-09T00:56:20.829Z,92.3
2016-06-09T00:57:20.880Z,92.21
2016-06-09T00:58:20.914Z,92.21
2016-06-09T00:59:20.949Z,91.93
2016-06-09T01:00:20.983Z,92.3
2016-06-09T01:01:21.017Z,92.79
2016-06-09T01:02:21.051Z,92.59
2016-06-09T01:03:21.086Z,91.93
2016-06-09T01:04:21.589Z,92.5
2016-06-09T01:05:21.155Z,92.5
2016-06-09T01:06:21.188Z,93.07
2016-06-09T01:07:21.238Z,93.07
2016-06-09T01:08:21.272Z,92.97
2016-06-09T01:09:21.292Z,92.5
2016-06-09T01:10:21.342Z,92.21
2016-06-09T01:11:21.376Z,92.4
2016-06-09T01:12:21.410Z,93.36
2016-06-09T01:13:21.445Z,93.36
2016-06-09T01:14:21.479Z,93.55
2016-06-09T01:15:21.513Z,93.55
2016-06-09T01:16:21.563Z,94.07
2016-06-09T01:17:21.582Z,93.31
2016-06-09T01:18:21.789Z,93.65
2016-06-09T01:19:22.244Z,93.5
2016-06-09T01:20:21.700Z,93.98
2016-06-09T01:21:21.579Z,93.5
2016-06-09T01:22:21.754Z,93.26
2016-06-09T01:23:21.803Z,93.16
2016-06-09T01:24:21.838Z,92.83
2016-06-09T01:25:21.872Z,93.41
2016-06-09T01:26:21.907Z,93.31
2016-06-09T01:27:21.940Z,93.12
2016-06-09T01:28:21.975Z,92.88
2016-06-09T01:29:22.010Z,92.21
2016-06-09T01:30:22.044Z,92.02
2016-06-09T01:31:22.078Z,92.4
2016-06-09T01:32:22.112Z,92.4
2016-06-09T01:33:22.163Z,92.3
2016-06-09T01:34:22.196Z,92.02
2016-06-09T01:35:22.215Z,92.11
2016-06-09T01:36:22.109Z,92.3
2016-06-09T01:37:22.299Z,92.11
2016-06-09T01:38:22.334Z,92.02
2016-06-09T01:39:22.368Z,92.5
2016-06-09T01:40:22.403Z,92.26
2016-06-09T01:41:22.437Z,92.45
2016-06-09T01:42:22.471Z,92.59
2016-06-09T01:43:22.505Z,92.79
2016-06-09T01:44:22.383Z,92.3
2016-06-09T01:45:22.575Z,92.59
2016-06-09T01:46:22.624Z,92.5
2016-06-09T01:47:22.643Z,92.3
2016-06-09T01:48:22.693Z,91.25
2016-06-09T01:49:22.743Z,90.49
2016-06-09T01:50:22.762Z,90.39
2016-06-09T01:51:22.796Z,89.82
2016-06-09T01:52:22.830Z,90.59
2016-06-09T01:53:22.865Z,90.78
2016-06-09T01:54:22.898Z,90.59
2016-06-09T01:55:22.933Z,89.44
2016-06-09T01:56:22.967Z,90.25
2016-06-09T01:57:23.017Z,89.73
2016-06-09T01:58:23.036Z,89.92
2016-06-09T01:59:23.071Z,89.87
2016-06-09T02:00:23.104Z,89.11
2016-06-09T02:01:23.139Z,88.2
2016-06-09T02:02:23.189Z,88.2
2016-06-09T02:03:23.208Z,88.96
2016-06-09T02:04:23.367Z,89.78
2016-06-09T02:05:23.292Z,89.97
2016-06-09T02:06:23.326Z,89.59
2016-06-09T02:07:23.361Z,89.2
2016-06-09T02:08:23.395Z,89.87
2016-06-09T02:09:23.429Z,89.68
2016-06-09T02:10:23.463Z,89.68
2016-06-09T02:11:23.513Z,89.11
2016-06-09T02:12:23.532Z,89.01
2016-06-09T02:13:23.567Z,87.96
2016-06-09T02:14:23.616Z,88.92
2016-06-09T02:15:23.636Z,88.92
2016-06-09T02:16:23.670Z,89.25
2016-06-09T02:17:23.704Z,88.29
2016-06-09T02:18:23.941Z,88.2
2016-06-09T02:19:23.616Z,88.39
2016-06-09T02:20:23.823Z,88.54
2016-06-09T02:21:23.840Z,89.01
2016-06-09T02:22:23.891Z,89.68
2016-06-09T02:23:23.910Z,89.87
2016-06-09T02:24:23.960Z,89.11
2016-06-09T02:25:23.994Z,89.11
2016-06-09T02:26:24.028Z,89.3
2016-06-09T02:27:24.062Z,88.06
2016-06-09T02:28:24.098Z,87.91
2016-06-09T02:29:24.132Z,87.91
2016-06-09T02:30:24.166Z,89.01
2016-06-09T02:31:24.200Z,89.11
2016-06-09T02:32:24.235Z,87.96
2016-06-09T02:33:24.269Z,88.48
2016-06-09T02:34:24.991Z,88.15
2016-06-09T02:35:24.353Z,87.87
2016-06-09T02:36:24.387Z,87.34
2016-06-09T02:37:24.421Z,87.15
2016-06-09T02:38:24.441Z,87.05
2016-06-09T02:39:24.490Z,87.01
2016-06-09T02:40:24.524Z,87.68
2016-06-09T02:41:24.559Z,87.87
2016-06-09T02:42:24.594Z,87.53
2016-06-09T02:43:24.627Z,87.39
2016-06-09T02:44:24.662Z,87.87
2016-06-09T02:45:24.695Z,88.15
2016-06-09T02:46:24.746Z,89.2
2016-06-09T02:47:24.765Z,87.48
2016-06-09T02:48:24.814Z,87.77
2016-06-09T02:49:24.849Z,88.01
2016-06-09T02:50:24.883Z,87.15
2016-06-09T02:51:24.902Z,87.15
2016-06-09T02:52:24.936Z,87.53
2016-06-09T02:53:24.970Z,87.15
2016-06-09T02:54:25.005Z,87.82
2016-06-09T02:55:25.056Z,86.86
2016-06-09T02:56:25.073Z,86.96
2016-06-09T02:57:24.967Z,86.76
2016-06-09T02:58:25.158Z,87.53
2016-06-09T02:59:25.193Z,87.24
2016-06-09T03:00:25.226Z,87.72
2016-06-09T03:01:25.261Z,87.91
2016-06-09T03:02:25.295Z,87.82
2016-06-09T03:03:25.173Z,87.91
2016-06-09T03:04:25.239Z,87.87
2016-06-09T03:05:25.399Z,88.29
2016-06-09T03:06:25.432Z,87.91
2016-06-09T03:07:25.467Z,88.29
2016-06-09T03:08:25.502Z,88.92
2016-06-09T03:09:25.536Z,88.77
2016-06-09T03:10:25.569Z,89.49
2016-06-09T03:11:25.636Z,88.96
2016-06-09T03:12:25.654Z,89.49
2016-06-09T03:13:25.689Z,88.87
2016-06-09T03:14:25.722Z,89.11
2016-06-09T03:15:25.757Z,89.01
2016-06-09T03:16:25.791Z,88.77
2016-06-09T03:17:25.826Z,89.15
2016-06-09T03:18:25.860Z,88.96
2016-06-09T03:19:26.285Z,89.15
2016-06-09T03:20:25.928Z,88.96
2016-06-09T03:21:25.963Z,88.29
2016-06-09T03:22:25.997Z,88.96
2016-06-09T03:23:26.031Z,89.06
2016-06-09T03:24:26.065Z,89.34
2016-06-09T03:25:26.116Z,89.06
2016-06-09T03:26:26.135Z,89.06
2016-06-09T03:27:26.184Z,89.25
2016-06-09T03:28:26.219Z,89.63
2016-06-09T03:29:26.253Z,89.78
2016-06-09T03:30:26.288Z,90.54
2016-06-09T03:31:26.322Z,90.16
2016-06-09T03:32:26.357Z,90.45
2016-06-09T03:33:26.390Z,90.49
2016-06-09T03:34:26.268Z,89.78
2016-06-09T03:35:26.460Z,89.73
2016-06-09T03:36:26.494Z,89.92
2016-06-09T03:37:26.527Z,90.3
2016-06-09T03:38:26.578Z,89.63
2016-06-09T03:39:26.612Z,89.73
2016-06-09T03:40:26.631Z,89.73
2016-06-09T03:41:26.680Z,89.73
2016-06-09T03:42:26.715Z,89.92
2016-06-09T03:43:26.749Z,90.64
2016-06-09T03:44:26.768Z,90.49
2016-06-09T03:45:26.818Z,90.49
2016-06-09T03:46:26.852Z,91.11
2016-06-09T03:47:26.886Z,90.45
2016-06-09T03:48:26.921Z,91.02
2016-06-09T03:49:26.956Z,90.92
2016-06-09T03:50:26.989Z,91.4
2016-06-09T03:51:27.023Z,90.97
2016-06-09T03:52:27.059Z,91.16
2016-06-09T03:53:27.093Z,91.3
2016-06-09T03:54:26.970Z,91.69
2016-06-09T03:55:27.161Z,91.06
2016-06-09T03:56:27.196Z,91.06
2016-06-09T03:57:27.230Z,90.88
2016-06-09T03:58:27.280Z,90.88
2016-06-09T03:59:27.314Z,91.16
2016-06-09T04:00:27.348Z,91.25
2016-06-09T04:01:27.383Z,91.25
2016-06-09T04:02:27.418Z,91.64
2016-06-09T04:03:27.452Z,91.74
2016-06-09T04:04:28.095Z,91.16
2016-06-09T04:05:27.536Z,91.25
2016-06-09T04:06:27.555Z,90.59
2016-06-09T04:07:27.589Z,90.68
2016-06-09T04:08:27.622Z,90.78
2016-06-09T04:09:27.501Z,90.11
2016-06-09T04:10:27.692Z,90.01
2016-06-09T04:11:27.726Z,90.68
2016-06-09T04:12:27.760Z,90.3
2016-06-09T04:13:27.795Z,90.59
2016-06-09T04:14:27.844Z,90.39
2016-06-09T04:15:27.880Z,91.25
2016-06-09T04:16:27.758Z,90.97
2016-06-09T04:17:27.947Z,91.74
2016-06-09T04:18:27.997Z,91.45
2016-06-09T04:19:28.392Z,92.4
2016-06-09T04:20:27.895Z,91.83
2016-06-09T04:21:28.084Z,91.74
2016-06-09T04:22:28.119Z,91.83
2016-06-09T04:23:28.169Z,91.16
2016-06-09T04:24:28.188Z,91.16
2016-06-09T04:25:28.238Z,90.97
2016-06-09T04:26:28.272Z,90.53
2016-06-09T04:27:28.306Z,90.2
2016-06-09T04:28:28.341Z,90.11
2016-06-09T04:29:28.376Z,91.54
2016-06-09T04:30:28.410Z,91.25
2016-06-09T04:31:28.444Z,91.39
2016-06-09T04:32:28.493Z,91.45
2016-06-09T04:33:28.513Z,90.88
2016-06-09T04:34:28.563Z,90.82
2016-06-09T04:35:28.424Z,90.16
2016-06-09T04:36:28.631Z,90.34
2016-06-09T04:37:28.665Z,90.44
2016-06-09T04:38:28.700Z,90.53
2016-06-09T04:39:28.734Z,90.44
2016-06-09T04:40:28.768Z,89.77
2016-06-09T04:41:28.802Z,90.25
2016-06-09T04:42:28.837Z,89.67
2016-06-09T04:43:28.872Z,89.87
2016-06-09T04:44:28.905Z,89.67
2016-06-09T04:45:28.939Z,90.06
2016-06-09T04:46:28.975Z,90.34
2016-06-09T04:47:29.025Z,90.34
2016-06-09T04:48:29.058Z,89.87
2016-06-09T04:49:29.546Z,89.67
2016-06-09T04:50:28.971Z,90.73
2016-06-09T04:51:29.177Z,90.53
2016-06-09T04:52:29.196Z,89.87
2016-06-09T04:53:29.246Z,90.34
2016-06-09T04:54:29.280Z,90.25
2016-06-09T04:55:29.314Z,90.53
2016-06-09T04:56:29.348Z,90.53
2016-06-09T04:57:29.384Z,90.73
2016-06-09T04:58:29.418Z,90.92
2016-06-09T04:59:29.467Z,91.59
2016-06-09T05:00:29.502Z,91.3
2016-06-09T05:01:29.521Z,91.11
2016-06-09T05:02:29.555Z,91.2
2016-06-09T05:03:29.620Z,91.78
2016-06-09T05:04:29.716Z,91.78
2016-06-09T05:05:29.673Z,91.49
2016-06-09T05:06:29.708Z,91.78
2016-06-09T05:07:29.742Z,91.02
2016-06-09T05:08:29.777Z,91.3
2016-06-09T05:09:29.810Z,91.2
2016-06-09T05:10:29.860Z,91.78
2016-06-09T05:11:29.895Z,91.78
2016-06-09T05:12:29.930Z,91.68
2016-06-09T05:13:29.963Z,91.68
2016-06-09T05:14:29.998Z,91.68
2016-06-09T05:15:30.032Z,91.88
2016-06-09T05:16:30.067Z,92.25
2016-06-09T05:17:30.101Z,92.25
2016-06-09T05:18:30.166Z,91.78
2016-06-09T05:19:30.185Z,92.07
2016-06-09T05:20:30.985Z,92.54
2016-06-09T05:21:30.238Z,92.45
2016-06-09T05:22:30.288Z,92.25
2016-06-09T05:23:30.322Z,93.12
2016-06-09T05:24:30.356Z,92.93
2016-06-09T05:25:30.392Z,93.02
2016-06-09T05:26:30.426Z,93.02
2016-06-09T05:27:30.460Z,93.02
2016-06-09T05:28:30.493Z,93.02
2016-06-09T05:29:30.372Z,93.31
2016-06-09T05:30:30.578Z,93.4
2016-06-09T05:31:30.613Z,93.21
2016-06-09T05:32:30.647Z,93.21
2016-06-09T05:33:30.525Z,93.21
2016-06-09T05:34:30.715Z,93.31
2016-06-09T05:35:30.766Z,93.6
2016-06-09T05:36:30.784Z,94.07
2016-06-09T05:37:30.818Z,93.74
2016-06-09T05:38:30.868Z,94.55
2016-06-09T05:39:30.903Z,93.98
2016-06-09T05:40:30.938Z,94.93
2016-06-09T05:41:30.972Z,95.65
2016-06-09T05:42:31.022Z,95.17
2016-06-09T05:43:30.883Z,94.74
2016-06-09T05:44:30.918Z,94.84
2016-06-09T05:45:31.108Z,95.03
2016-06-09T05:46:31.143Z,94.98
2016-06-09T05:47:31.177Z,95.12
2016-06-09T05:48:31.227Z,94.84
2016-06-09T05:49:31.261Z,94.55
2016-06-09T05:50:31.936Z,94.55
2016-06-09T05:51:31.330Z,94.79
2016-06-09T05:52:31.380Z,94.26
2016-06-09T05:53:31.398Z,94.65
2016-06-09T05:54:31.434Z,94.36
2016-06-09T05:55:31.468Z,93.79
2016-06-09T05:56:31.517Z,93.98
2016-06-09T05:57:31.536Z,93.79
2016-06-09T05:58:31.586Z,93.6
2016-06-09T05:59:31.621Z,93.88
2016-06-09T06:00:31.655Z,94.46
2016-06-09T06:01:31.690Z,94.36
2016-06-09T06:02:31.723Z,94.74
2016-06-09T06:03:31.759Z,94.46
2016-06-09T06:04:31.807Z,94.74
2016-06-09T06:05:31.842Z,95.12
2016-06-09T06:06:31.876Z,94.93
2016-06-09T06:07:31.910Z,95.22
2016-06-09T06:08:31.944Z,95.41
2016-06-09T06:09:31.980Z,94.65
2016-06-09T06:10:32.014Z,95.03
2016-06-09T06:11:32.048Z,94.84
2016-06-09T06:12:32.082Z,95.03
2016-06-09T06:13:32.132Z,94.55
2016-06-09T06:14:32.151Z,94.84
2016-06-09T06:15:32.201Z,94.55
2016-06-09T06:16:32.219Z,94.65
2016-06-09T06:17:32.269Z,94.84
2016-06-09T06:18:32.305Z,95.41
2016-06-09T06:19:32.354Z,94.84
2016-06-09T06:20:32.217Z,94.36
2016-06-09T06:21:32.251Z,94.26
2016-06-09T06:22:32.442Z,94.17
2016-06-09T06:23:33.179Z,94.55
2016-06-09T06:24:32.369Z,94.55
2016-06-09T06:25:32.560Z,94.46
2016-06-09T06:26:32.594Z,94.84
2016-06-09T06:27:32.628Z,94.74
2016-06-09T06:28:32.663Z,94.46
2016-06-09T06:29:32.698Z,94.46
2016-06-09T06:30:32.731Z,94.46
2016-06-09T06:31:32.765Z,94.46
2016-06-09T06:32:32.815Z,94.65
2016-06-09T06:33:34.710Z,95.12
2016-06-09T06:34:32.978Z,95.22
2016-06-09T06:35:33.357Z,95.22
2016-06-09T06:36:32.953Z,94.65
2016-06-09T06:37:32.988Z,94.5
2016-06-09T06:38:33.022Z,93.69
2016-06-09T06:39:33.072Z,93.55
2016-06-09T06:40:33.090Z,92.06
2016-06-09T06:41:33.125Z,90.91
2016-06-09T06:42:33.174Z,90.29
2016-06-09T06:43:33.960Z,89.62
2016-06-09T06:44:33.243Z,89.62
2016-06-09T06:45:33.293Z,89.62
2016-06-09T06:46:33.311Z,89.9
2016-06-09T06:47:33.347Z,90.58
2016-06-09T06:48:33.397Z,90.77
2016-06-09T06:49:33.290Z,90.67
2016-06-09T06:50:33.481Z,90.63
2016-06-09T06:51:33.498Z,91.77
2016-06-09T06:52:33.549Z,91.68
2016-06-09T06:53:34.724Z,92.25
2016-06-09T06:54:33.618Z,92.06
2016-06-09T06:55:33.652Z,92.44
2016-06-09T06:56:33.686Z,92.83
2016-06-09T06:57:33.736Z,92.4
2016-06-09T06:58:34.849Z,92.88
2016-06-09T06:59:33.806Z,92.59
2016-06-09T07:00:33.839Z,93.16
2016-06-09T07:01:33.873Z,92.4
2016-06-09T07:02:33.908Z,92.21
2016-06-09T07:03:33.943Z,92.02
2016-06-09T07:04:33.991Z,92.4
2016-06-09T07:05:34.027Z,93.35
2016-06-09T07:06:34.061Z,93.16
2016-06-09T07:07:34.095Z,92.97
2016-06-09T07:08:35.504Z,93.16
2016-06-09T07:09:34.164Z,92.97
2016-06-09T07:10:34.215Z,93.07
2016-06-09T07:11:34.248Z,92.02
2016-06-09T07:12:34.282Z,92.02
2016-06-09T07:13:34.316Z,92.69
2016-06-09T07:14:34.352Z,93.16
2016-06-09T07:15:34.385Z,92.78
2016-06-09T07:16:34.420Z,93.26
2016-06-09T07:17:34.453Z,92.88
2016-06-09T07:18:34.348Z,92.3
2016-06-09T07:19:34.554Z,92.11
2016-06-09T07:20:34.807Z,92.59
2016-06-09T07:21:34.607Z,92.11
2016-06-09T07:22:34.641Z,92.59
2016-06-09T07:23:34.535Z,92.78
2016-06-09T07:24:34.725Z,93.26
2016-06-09T07:25:34.761Z,93.98
2016-06-09T07:26:34.795Z,93.4
2016-06-09T07:27:34.829Z,93.45
2016-06-09T07:28:35.659Z,93.55
2016-06-09T07:29:34.898Z,92.97
2016-06-09T07:30:34.932Z,92.97
2016-06-09T07:31:34.982Z,93.07
2016-06-09T07:32:35.016Z,93.07
2016-06-09T07:33:35.049Z,93.45
2016-06-09T07:34:35.084Z,93.98
2016-06-09T07:35:35.384Z,93.88
2016-06-09T07:36:35.169Z,93.84
2016-06-09T07:37:35.203Z,93.74
2016-06-09T07:38:35.237Z,93.84
2016-06-09T07:39:35.271Z,93.74
2016-06-09T07:40:35.306Z,94.17
2016-06-09T07:41:35.355Z,93.79
2016-06-09T07:42:35.375Z,94.12
2016-06-09T07:43:36.299Z,93.45
2016-06-09T07:44:35.459Z,93.45
2016-06-09T07:45:35.493Z,93.26
2016-06-09T07:46:35.528Z,93.26
2016-06-09T07:47:35.562Z,92.88
2016-06-09T07:48:35.456Z,92.02
2016-06-09T07:49:35.630Z,92.4
2016-06-09T07:50:36.227Z,93.16
2016-06-09T07:51:35.700Z,92.78
2016-06-09T07:52:35.749Z,92.59
2016-06-09T07:53:35.642Z,92.3
2016-06-09T07:54:35.817Z,91.49
2016-06-09T07:55:35.853Z,91.39
2016-06-09T07:56:35.887Z,91.58
2016-06-09T07:57:35.921Z,91.58
2016-06-09T07:58:35.954Z,91.87
2016-06-09T07:59:36.005Z,91.44
2016-06-09T08:00:36.055Z,90.58
2016-06-09T08:01:36.074Z,90.77
2016-06-09T08:02:36.108Z,90.77
2016-06-09T08:03:36.142Z,90.39
2016-06-09T08:04:36.192Z,90.39
2016-06-09T08:05:36.259Z,91.3
2016-06-09T08:06:36.261Z,91.34
2016-06-09T08:07:36.296Z,91.77
2016-06-09T08:08:38.768Z,91.97
2016-06-09T08:09:36.379Z,91.92
2016-06-09T08:10:36.430Z,91.49
2016-06-09T08:11:36.448Z,90.58
2016-06-09T08:12:36.482Z,90.67
2016-06-09T08:13:37.939Z,90.58
2016-06-09T08:14:36.550Z,90.09
2016-06-09T08:15:36.585Z,89.66
2016-06-09T08:16:36.635Z,89.28
2016-06-09T08:17:36.685Z,88.32
2016-06-09T08:18:36.876Z,89.18
2016-06-09T08:19:36.739Z,88.42
2016-06-09T08:20:36.866Z,87.84
2016-06-09T08:21:36.823Z,87.94
2016-06-09T08:22:36.856Z,87.94
2016-06-09T08:23:36.892Z,88.42
2016-06-09T08:24:36.944Z,88.42
2016-06-09T08:25:37.020Z,89.09
2016-06-09T08:26:37.097Z,89.28
2016-06-09T08:27:37.173Z,89.47
2016-06-09T08:28:37.267Z,89.28
2016-06-09T08:29:37.342Z,89.86
2016-06-09T08:30:37.392Z,90.72
2016-06-09T08:31:37.442Z,90.96
2016-06-09T08:32:37.491Z,91.34
2016-06-09T08:33:37.556Z,91.53
2016-06-09T08:34:37.449Z,92.01
2016-06-09T08:35:38.271Z,92.01
2016-06-09T08:36:37.686Z,91.92
2016-06-09T08:37:37.725Z,91.82
2016-06-09T08:38:37.780Z,92.49
2016-06-09T08:39:37.819Z,93.3
2016-06-09T08:40:37.855Z,93.12
2016-06-09T08:41:37.893Z,92.25
2016-06-09T08:42:37.945Z,93.12
2016-06-09T08:43:38.028Z,93.12
2016-06-09T08:44:38.032Z,93.69
2016-06-09T08:45:38.051Z,93.16
2016-06-09T08:46:38.102Z,93.35
2016-06-09T08:47:38.137Z,94.26
2016-06-09T08:48:38.173Z,93.16
2016-06-09T08:49:38.208Z,92.21
2016-06-09T08:50:38.883Z,92.58
2016-06-09T08:51:38.276Z,92.58
2016-06-09T08:52:38.327Z,92.49
2016-06-09T08:53:38.363Z,92.44
2016-06-09T08:54:38.397Z,92.49
2016-06-09T08:55:38.432Z,92.21
2016-06-09T08:56:38.465Z,92.21
2016-06-09T08:57:38.516Z,92.54
2016-06-09T08:58:40.316Z,92.21
2016-06-09T08:59:38.599Z,92.4
2016-06-09T09:00:38.634Z,93.16
2016-06-09T09:01:38.668Z,93.5
2016-06-09T09:02:38.702Z,93.5
2016-06-09T09:03:39.455Z,93.21
2016-06-09T09:04:38.803Z,93.45
2016-06-09T09:05:38.806Z,93.26
2016-06-09T09:06:38.856Z,92.78
2016-06-09T09:07:38.890Z,93.16
2016-06-09T09:08:38.924Z,93.07
2016-06-09T09:09:38.974Z,93.35
2016-06-09T09:10:38.994Z,92.49
2016-06-09T09:11:39.027Z,93.54
2016-06-09T09:12:39.062Z,93.88
2016-06-09T09:13:39.112Z,94.07
2016-06-09T09:14:39.162Z,94.36
2016-06-09T09:15:39.180Z,93.79
2016-06-09T09:16:39.215Z,93.79
2016-06-09T09:17:39.249Z,93.98
2016-06-09T09:18:40.815Z,94.65
2016-06-09T09:19:39.333Z,94.74
2016-06-09T09:20:39.367Z,94.93
2016-06-09T09:21:39.417Z,94.65
2016-06-09T09:22:39.436Z,94.55
2016-06-09T09:23:39.470Z,94.45
2016-06-09T09:24:39.520Z,93.74
2016-06-09T09:25:39.554Z,93.54
2016-06-09T09:26:39.589Z,93.54
2016-06-09T09:27:39.624Z,93.26
2016-06-09T09:28:39.657Z,93.45
2016-06-09T09:29:39.723Z,92.97
2016-06-09T09:30:39.742Z,92.58
2016-06-09T09:31:39.791Z,92.78
2016-06-09T09:32:39.810Z,92.87
2016-06-09T09:33:39.845Z,93.64
2016-06-09T09:34:39.879Z,93.93
2016-06-09T09:35:41.210Z,94.21
2016-06-09T09:36:39.963Z,94.26
2016-06-09T09:37:39.999Z,93.83
2016-06-09T09:38:40.047Z,94.07
2016-06-09T09:39:40.082Z,94.17
2016-06-09T09:40:40.116Z,93.45
2016-06-09T09:41:40.151Z,93.26
2016-06-09T09:42:40.216Z,93.45
2016-06-09T09:43:40.235Z,93.16
2016-06-09T09:44:40.270Z,93.07
2016-06-09T09:45:40.304Z,93.64
2016-06-09T09:46:40.338Z,93.45
2016-06-09T09:47:40.371Z,93.45
2016-06-09T09:48:40.407Z,93.74
2016-06-09T09:49:40.441Z,93.83
2016-06-09T09:50:40.492Z,93.74
2016-06-09T09:51:40.526Z,94.12
2016-06-09T09:52:40.559Z,93.45
2016-06-09T09:53:40.437Z,93.93
2016-06-09T09:54:40.629Z,94.12
2016-06-09T09:55:40.679Z,94.12
2016-06-09T09:56:40.712Z,93.35
2016-06-09T09:57:40.747Z,92.68
2016-06-09T09:58:40.780Z,92.68
2016-06-09T09:59:40.831Z,92.54
2016-06-09T10:00:40.694Z,92.92
2016-06-09T10:01:40.900Z,93.64
2016-06-09T10:02:40.934Z,93.35
2016-06-09T10:03:40.968Z,93.64
2016-06-09T10:04:41.002Z,92.97
2016-06-09T10:05:41.677Z,92.97
2016-06-09T10:06:41.102Z,93.07
2016-06-09T10:07:41.121Z,92.49
2016-06-09T10:08:41.156Z,92.58
2016-06-09T10:09:41.189Z,93.07
2016-06-09T10:10:41.225Z,93.35
2016-06-09T10:11:41.259Z,92.3
2016-06-09T10:12:41.309Z,92.35
2016-06-09T10:13:41.343Z,92.44
2016-06-09T10:14:41.377Z,92.06
2016-06-09T10:15:41.443Z,91.86
2016-06-09T10:16:41.461Z,91.96
2016-06-09T10:17:41.496Z,91.86
2016-06-09T10:18:41.530Z,91.86
2016-06-09T10:19:41.564Z,91.29
2016-06-09T10:20:41.818Z,91.29
2016-06-09T10:21:42.086Z,92.06
2016-06-09T10:22:41.683Z,91.96
2016-06-09T10:23:41.718Z,92.06
2016-06-09T10:24:41.751Z,92.15
2016-06-09T10:25:41.785Z,92.06
2016-06-09T10:26:41.820Z,92.49
2016-06-09T10:27:41.870Z,92.63
2016-06-09T10:28:41.905Z,92.35
2016-06-09T10:29:41.939Z,92.49
2016-06-09T10:30:41.990Z,91.86
2016-06-09T10:31:42.023Z,92.06
2016-06-09T10:32:42.057Z,92.06
2016-06-09T10:33:42.091Z,92.06
2016-06-09T10:34:42.126Z,92.3
2016-06-09T10:35:42.536Z,92.25
2016-06-09T10:36:42.210Z,92.3
2016-06-09T10:37:42.244Z,91.96
2016-06-09T10:38:42.294Z,91.67
2016-06-09T10:39:42.314Z,91.58
2016-06-09T10:40:42.363Z,91.86
2016-06-09T10:41:42.398Z,91.67
2016-06-09T10:42:42.432Z,91.67
2016-06-09T10:43:42.466Z,92.54
2016-06-09T10:44:42.500Z,93.26
2016-06-09T10:45:42.536Z,93.54
2016-06-09T10:46:42.585Z,92.78
2016-06-09T10:47:42.619Z,92.49
2016-06-09T10:48:42.654Z,92.35
2016-06-09T10:49:42.703Z,92.63
2016-06-09T10:50:42.738Z,91.96
2016-06-09T10:51:42.772Z,92.54
2016-06-09T10:52:42.807Z,91.96
2016-06-09T10:53:42.841Z,91.67
2016-06-09T10:54:42.874Z,91.58
2016-06-09T10:55:42.925Z,91.96
2016-06-09T10:56:42.959Z,92.15
2016-06-09T10:57:42.994Z,92.06
2016-06-09T10:58:43.028Z,91.86
2016-06-09T10:59:43.079Z,91.29
2016-06-09T11:00:43.112Z,91.49
2016-06-09T11:02:01.053Z,91.29
2016-06-09T11:02:43.196Z,90.53
2016-06-09T11:03:43.216Z,91.19
2016-06-09T11:04:43.250Z,91.58
2016-06-09T11:05:43.143Z,91.29
2016-06-09T11:06:43.334Z,90.86
2016-06-09T11:07:43.212Z,90.62
2016-06-09T11:08:43.418Z,91
2016-06-09T11:09:43.437Z,91.29
2016-06-09T11:10:43.502Z,91.58
2016-06-09T11:11:43.521Z,91.49
2016-06-09T11:12:43.555Z,90.72
2016-06-09T11:13:43.449Z,91.39
2016-06-09T11:14:43.483Z,91.39
2016-06-09T11:15:43.674Z,91.77
2016-06-09T11:16:43.708Z,91.1
2016-06-09T11:17:43.758Z,92.06
2016-06-09T11:18:43.793Z,92.54
2016-06-09T11:19:43.811Z,91.86
2016-06-09T11:20:43.705Z,92.15
2016-06-09T11:21:44.239Z,91.96
2016-06-09T11:22:43.946Z,91.86
2016-06-09T11:23:43.964Z,91
2016-06-09T11:24:44.014Z,90.23
2016-06-09T11:25:44.048Z,90.33
2016-06-09T11:26:44.114Z,90.81
2016-06-09T11:27:44.118Z,90.81
2016-06-09T11:28:44.167Z,90.81
2016-06-09T11:29:44.046Z,90
2016-06-09T11:30:44.235Z,90.38
2016-06-09T11:31:44.269Z,89.8
2016-06-09T11:32:44.320Z,89.71
2016-06-09T11:33:44.355Z,89.51
2016-06-09T11:34:44.388Z,89.61
2016-06-09T11:35:44.439Z,89.8
2016-06-09T11:36:45.114Z,89.71
2016-06-09T11:37:44.507Z,89.71
2016-06-09T11:38:44.541Z,90.09
2016-06-09T11:39:44.576Z,90.09
2016-06-09T11:40:44.611Z,90
2016-06-09T11:41:44.660Z,90.86
2016-06-09T11:42:44.695Z,91.29
2016-06-09T11:43:44.729Z,91.39
2016-06-09T11:44:44.795Z,90.81
2016-06-09T11:45:44.813Z,90.57
2016-06-09T11:46:44.848Z,90.86
2016-06-09T11:47:44.882Z,90.28
2016-06-09T11:48:44.915Z,90.47
2016-06-09T11:49:44.950Z,90.57
2016-06-09T11:50:45.000Z,90.76
2016-06-09T11:51:45.566Z,90.76
2016-06-09T11:52:45.069Z,90.67
2016-06-09T11:53:45.120Z,91.05
2016-06-09T11:54:45.153Z,91.05
2016-06-09T11:55:45.188Z,91.34
2016-06-09T11:56:45.221Z,91.34
2016-06-09T11:57:45.257Z,90.95
2016-06-09T11:58:45.307Z,90.76
2016-06-09T11:59:45.340Z,90.76
2016-06-09T12:00:45.375Z,90.38
2016-06-09T12:01:45.409Z,90.86
2016-06-09T12:02:45.459Z,90.47
2016-06-09T12:03:45.493Z,90.67
2016-06-09T12:04:45.528Z,90.57
2016-06-09T12:05:45.562Z,90.95
2016-06-09T12:06:46.674Z,90.57
2016-06-09T12:07:45.646Z,91.63
2016-06-09T12:08:45.680Z,90.86
2016-06-09T12:09:45.715Z,90.86
2016-06-09T12:10:45.765Z,90.86
2016-06-09T12:11:45.799Z,90.76
2016-06-09T12:12:45.833Z,90.86
2016-06-09T12:13:45.867Z,90.28
2016-06-09T12:14:45.918Z,91.24
2016-06-09T12:15:45.796Z,91.43
2016-06-09T12:16:45.987Z,90.86
2016-06-09T12:17:46.036Z,90.38
2016-06-09T12:18:46.071Z,90.19
2016-06-09T12:19:46.105Z,90
2016-06-09T12:20:46.624Z,90.47
2016-06-09T12:21:46.298Z,90.19
2016-06-09T12:22:46.223Z,90.23
2016-06-09T12:23:46.259Z,89.08
2016-06-09T12:24:46.307Z,89.08
2016-06-09T12:25:46.327Z,89.18
2016-06-09T12:26:46.361Z,89.37
2016-06-09T12:27:46.395Z,89.65
2016-06-09T12:28:46.445Z,89.08
2016-06-09T12:29:46.480Z,88.98
2016-06-09T12:30:46.514Z,88.02
2016-06-09T12:31:46.548Z,88.6
2016-06-09T12:32:46.598Z,88.79
2016-06-09T12:33:46.632Z,89.85
2016-06-09T12:34:46.682Z,89.47
2016-06-09T12:35:46.717Z,89.47
2016-06-09T12:36:46.752Z,88.6
2016-06-09T12:37:46.786Z,87.88
2016-06-09T12:38:46.819Z,88.35
2016-06-09T12:39:46.869Z,88.65
2016-06-09T12:40:46.904Z,87.78
2016-06-09T12:41:46.939Z,88.17
2016-06-09T12:42:46.973Z,88.22
2016-06-09T12:43:47.023Z,87.98
2016-06-09T12:44:47.057Z,87.68
2016-06-09T12:45:47.091Z,87.15
2016-06-09T12:46:47.141Z,86.1
2016-06-09T12:47:47.175Z,86.1
2016-06-09T12:48:47.210Z,85.91
2016-06-09T12:49:47.260Z,85.71
2016-06-09T12:50:47.279Z,86.1
2016-06-09T12:51:47.984Z,85.71
2016-06-09T12:52:47.378Z,85.81
2016-06-09T12:53:47.396Z,85.52
2016-06-09T12:54:47.447Z,85.14
2016-06-09T12:55:47.496Z,86